Time;durP1;ratioP1;P1;durP2;ratioP2;P2;SDS_P1;SDS_P2;PMS_P1;PMS_P2;Temp;Humidity;BMP_temperature;BMP_pressure;BME280_temperature;BME280_humidity;BME280_pressure;Samples;Min_cycle;Max_cycle;Signal;HPM_P1;HPM_P2
2023/12/11 00:00:46;;;;;;;52.22;7.72;;;;;;;;;;5094978;28;20059;-68
2023/12/11 00:03:14;;;;;;;59.75;7.28;;;;;;;;;;5093588;28;20101;-68
2023/12/11 00:05:41;;;;;;;56.78;7.00;;;;;;;;;;5093550;28;20060;-68
2023/12/11 00:08:07;;;;;;;39.55;5.70;;;;;;;;;;5093433;28;20044;-68
2023/12/11 00:10:33;;;;;;;50.72;6.53;;;;;;;;;;5095280;28;20039;-68
2023/12/11 00:12:59;;;;;;;52.90;9.32;;;;;;;;;;5093354;28;20044;-68
2023/12/11 00:15:25;;;;;;;54.00;8.50;;;;;;;;;;5093148;28;20443;-68
2023/12/11 00:17:51;;;;;;;59.72;8.85;;;;;;;;;;5092553;28;20036;-68
2023/12/11 00:20:17;;;;;;;56.58;10.48;;;;;;;;;;5073196;28;20044;-68
2023/12/11 00:22:43;;;;;;;51.97;8.65;;;;;;;;;;5074725;28;20495;-68
2023/12/11 00:25:10;;;;;;;46.20;7.57;;;;;;;;;;5076079;28;20089;-68
2023/12/11 00:27:36;;;;;;;47.85;8.57;;;;;;;;;;5095192;28;20486;-68
2023/12/11 00:30:04;;;;;;;48.00;7.05;;;;;;;;;;5094058;28;20040;-68
2023/12/11 00:32:31;;;;;;;58.50;9.75;;;;;;;;;;5094157;28;20039;-68
2023/12/11 00:34:57;;;;;;;57.00;6.95;;;;;;;;;;5093467;28;20115;-68
2023/12/11 00:37:23;;;;;;;47.83;7.85;;;;;;;;;;5093437;28;20047;-68
2023/12/11 00:39:49;;;;;;;54.67;6.95;;;;;;;;;;5094722;28;20032;-68
2023/12/11 00:42:15;;;;;;;46.97;6.85;;;;;;;;;;5093720;28;20553;-68
2023/12/11 00:44:41;;;;;;;53.88;6.47;;;;;;;;;;5094704;28;20044;-68
2023/12/11 00:47:07;;;;;;;52.20;7.20;;;;;;;;;;5092974;28;20047;-68
2023/12/11 00:49:34;;;;;;;43.35;6.93;;;;;;;;;;5094398;28;20039;-68
2023/12/11 00:52:00;;;;;;;45.95;6.68;;;;;;;;;;5093115;28;20044;-68
2023/12/11 00:54:26;;;;;;;48.00;6.07;;;;;;;;;;5094619;28;20055;-68
2023/12/11 00:56:52;;;;;;;40.17;7.28;;;;;;;;;;5094709;28;20085;-68
2023/12/11 00:59:18;;;;;;;49.08;7.30;;;;;;;;;;5094284;28;20545;-68
2023/12/11 01:01:44;;;;;;;46.95;6.03;;;;;;;;;;5092656;28;20043;-68
2023/12/11 01:04:12;;;;;;;44.60;5.53;;;;;;;;;;5094063;28;20405;-68
2023/12/11 01:06:38;;;;;;;36.67;6.40;;;;;;;;;;5094033;28;20055;-68
2023/12/11 01:09:04;;;;;;;38.35;6.03;;;;;;;;;;5092228;28;20036;-68
2023/12/11 01:11:30;;;;;;;40.95;5.88;;;;;;;;;;5094240;28;20497;-68
2023/12/11 01:13:56;;;;;;;43.10;5.90;;;;;;;;;;5093951;28;20119;-68
2023/12/11 01:16:22;;;;;;;46.35;6.55;;;;;;;;;;5092490;28;20145;-68
2023/12/11 01:18:48;;;;;;;38.65;5.50;;;;;;;;;;5082955;28;20048;-68
2023/12/11 01:21:14;;;;;;;46.10;5.68;;;;;;;;;;5071595;28;20040;-68
2023/12/11 01:23:40;;;;;;;47.55;5.75;;;;;;;;;;5071517;28;20047;-68
2023/12/11 01:26:06;;;;;;;40.15;6.10;;;;;;;;;;5082730;28;20048;-68
2023/12/11 01:28:32;;;;;;;48.97;5.60;;;;;;;;;;5091547;28;20032;-68
2023/12/11 01:30:58;;;;;;;47.70;6.40;;;;;;;;;;5091217;28;20052;-68
2023/12/11 01:33:24;;;;;;;38.05;5.03;;;;;;;;;;5091821;28;20032;-68
2023/12/11 01:35:50;;;;;;;35.58;5.20;;;;;;;;;;5091557;28;20052;-68
2023/12/11 01:38:16;;;;;;;44.40;5.28;;;;;;;;;;5092508;28;20067;-68
2023/12/11 01:40:42;;;;;;;36.45;5.97;;;;;;;;;;5091196;28;20206;-68
2023/12/11 01:43:12;;;;;;;38.05;6.40;;;;;;;;;;5092882;28;20109;-68
2023/12/11 01:45:38;;;;;;;45.53;5.43;;;;;;;;;;5092044;28;20052;-68
2023/12/11 01:48:05;;;;;;;40.70;5.78;;;;;;;;;;5091205;28;20036;-68
2023/12/11 01:50:31;;;;;;;41.88;5.50;;;;;;;;;;5091436;28;20071;-68
2023/12/11 01:52:57;;;;;;;33.40;6.03;;;;;;;;;;5092883;28;20047;-68
2023/12/11 01:55:23;;;;;;;38.97;5.65;;;;;;;;;;5090947;28;20044;-68
2023/12/11 01:57:49;;;;;;;44.33;6.20;;;;;;;;;;5090672;28;20556;-68
2023/12/11 02:00:15;;;;;;;46.50;7.15;;;;;;;;;;5073628;28;20479;-68
2023/12/11 02:02:42;;;;;;;43.38;6.15;;;;;;;;;;5090639;28;20044;-68
2023/12/11 02:05:08;;;;;;;38.53;5.93;;;;;;;;;;5090802;28;20506;-68
2023/12/11 02:07:34;;;;;;;46.50;6.10;;;;;;;;;;5089814;28;20403;-68
2023/12/11 02:10:00;;;;;;;41.92;6.65;;;;;;;;;;5090226;28;20048;-68
2023/12/11 02:12:26;;;;;;;55.75;7.55;;;;;;;;;;5091987;28;20051;-68
2023/12/11 02:14:53;;;;;;;43.78;7.47;;;;;;;;;;5089466;28;20036;-68
2023/12/11 02:17:19;;;;;;;48.03;7.63;;;;;;;;;;5090684;28;20459;-68
2023/12/11 02:19:45;;;;;;;61.15;7.85;;;;;;;;;;5073460;28;20094;-68
2023/12/11 02:22:11;;;;;;;58.45;7.25;;;;;;;;;;5070062;28;20044;-68
2023/12/11 02:24:43;;;;;;;46.67;7.25;;;;;;;;;;5070030;28;20049;-68
2023/12/11 02:27:09;;;;;;;53.53;8.07;;;;;;;;;;5072682;28;20123;-68
2023/12/11 02:29:35;;;;;;;53.15;6.93;;;;;;;;;;5089824;28;20039;-68
2023/12/11 02:32:02;;;;;;;58.88;8.35;;;;;;;;;;5090221;28;20044;-68
2023/12/11 02:34:28;;;;;;;51.85;7.72;;;;;;;;;;5091819;28;20445;-68
2023/12/11 02:36:54;;;;;;;57.47;7.43;;;;;;;;;;5090560;28;20083;-68
2023/12/11 02:39:20;;;;;;;56.95;7.88;;;;;;;;;;5089874;28;20052;-68
2023/12/11 02:41:46;;;;;;;49.72;8.60;;;;;;;;;;5089908;28;20048;-68
2023/12/11 02:44:13;;;;;;;57.42;8.00;;;;;;;;;;5091201;28;20505;-68
2023/12/11 02:46:39;;;;;;;53.17;9.02;;;;;;;;;;5090133;28;20084;-68
2023/12/11 02:49:05;;;;;;;52.65;7.55;;;;;;;;;;5091588;28;20046;-68
2023/12/11 02:51:31;;;;;;;52.33;7.05;;;;;;;;;;5089807;28;20043;-68
2023/12/11 02:53:57;;;;;;;60.08;7.90;;;;;;;;;;5090194;28;20079;-68
2023/12/11 02:56:23;;;;;;;58.85;8.05;;;;;;;;;;5090110;28;20395;-68
2023/12/11 02:58:49;;;;;;;54.50;7.95;;;;;;;;;;5091005;28;20051;-68
2023/12/11 03:01:15;;;;;;;59.95;8.13;;;;;;;;;;5091055;28;20100;-68
2023/12/11 03:03:41;;;;;;;60.30;9.02;;;;;;;;;;5089894;28;20040;-68
2023/12/11 03:06:08;;;;;;;51.30;7.88;;;;;;;;;;5089574;28;20406;-68
2023/12/11 03:08:35;;;;;;;59.30;7.13;;;;;;;;;;5089954;28;20055;-68
2023/12/11 03:11:01;;;;;;;71.25;8.98;;;;;;;;;;5091182;28;20127;-68
2023/12/11 03:13:27;;;;;;;64.97;8.20;;;;;;;;;;5090676;28;20036;-68
2023/12/11 03:15:54;;;;;;;51.17;7.50;;;;;;;;;;5089997;28;20044;-68
2023/12/11 03:18:20;;;;;;;55.70;7.43;;;;;;;;;;5084465;28;20311;-68
2023/12/11 03:20:46;;;;;;;59.40;8.25;;;;;;;;;;5069719;28;20055;-68
2023/12/11 03:23:12;;;;;;;72.88;8.90;;;;;;;;;;5070653;28;20460;-68
2023/12/11 03:25:38;;;;;;;68.63;7.95;;;;;;;;;;5076035;28;20409;-68
2023/12/11 03:28:04;;;;;;;55.80;7.22;;;;;;;;;;5089885;28;20123;-68
2023/12/11 03:30:30;;;;;;;63.90;7.25;;;;;;;;;;5090216;28;20032;-68
2023/12/11 03:32:56;;;;;;;60.92;7.63;;;;;;;;;;5090437;28;20518;-68
2023/12/11 03:35:22;;;;;;;51.90;7.47;;;;;;;;;;5089811;28;20043;-68
2023/12/11 03:37:48;;;;;;;60.13;8.00;;;;;;;;;;5090245;28;20044;-68
2023/12/11 03:40:14;;;;;;;43.75;7.47;;;;;;;;;;5090920;28;20533;-68
2023/12/11 03:42:40;;;;;;;64.90;8.10;;;;;;;;;;5089807;28;20040;-68
2023/12/11 03:45:06;;;;;;;64.38;7.70;;;;;;;;;;5090036;28;20066;-68
2023/12/11 03:47:32;;;;;;;56.17;7.55;;;;;;;;;;5088067;28;20047;-67
2023/12/11 03:49:58;;;;;;;61.33;8.48;;;;;;;;;;5087836;28;20036;-67
2023/12/11 03:52:24;;;;;;;53.67;7.70;;;;;;;;;;5088513;28;20410;-67
2023/12/11 03:54:50;;;;;;;64.60;8.20;;;;;;;;;;5089734;28;20040;-67
2023/12/11 03:57:16;;;;;;;63.75;8.40;;;;;;;;;;5089313;28;20056;-67
2023/12/11 03:59:42;;;;;;;51.63;6.38;;;;;;;;;;5088121;28;20117;-67
2023/12/11 04:02:08;;;;;;;50.95;8.18;;;;;;;;;;5088219;28;20391;-67
2023/12/11 04:04:34;;;;;;;48.63;7.65;;;;;;;;;;5089530;28;20040;-67
2023/12/11 04:07:00;;;;;;;53.05;7.43;;;;;;;;;;5087673;28;20047;-67
2023/12/11 04:09:27;;;;;;;59.75;8.68;;;;;;;;;;5089624;28;20041;-67
2023/12/11 04:11:53;;;;;;;53.63;7.85;;;;;;;;;;5088425;28;20040;-67
2023/12/11 04:14:19;;;;;;;49.92;8.13;;;;;;;;;;5087798;28;20435;-67
2023/12/11 04:16:45;;;;;;;46.83;7.57;;;;;;;;;;5089468;28;20083;-67
2023/12/11 04:19:11;;;;;;;47.03;6.82;;;;;;;;;;5076166;28;20048;-67
2023/12/11 04:21:38;;;;;;;45.60;6.10;;;;;;;;;;5067907;28;20558;-67
2023/12/11 04:24:04;;;;;;;52.17;7.35;;;;;;;;;;5069563;28;20040;-67
2023/12/11 04:26:30;;;;;;;48.65;6.88;;;;;;;;;;5065240;28;20049;-67
2023/12/11 04:28:56;;;;;;;44.58;6.82;;;;;;;;;;5089490;28;20505;-68
2023/12/11 04:31:23;;;;;;;63.28;9.40;;;;;;;;;;5088130;28;20161;-68
2023/12/11 04:33:52;;;;;;;48.83;6.97;;;;;;;;;;5088603;28;20096;-68
2023/12/11 04:36:18;;;;;;;51.00;6.35;;;;;;;;;;5089272;28;20043;-68
2023/12/11 04:38:44;;;;;;;44.85;6.35;;;;;;;;;;5092188;28;20052;-68
2023/12/11 04:41:10;;;;;;;55.35;7.22;;;;;;;;;;5093228;28;20393;-68
2023/12/11 04:43:36;;;;;;;42.83;6.30;;;;;;;;;;5091359;28;20051;-68
2023/12/11 04:46:03;;;;;;;42.97;6.22;;;;;;;;;;5091385;28;20426;-68
2023/12/11 04:48:29;;;;;;;47.40;6.88;;;;;;;;;;5091193;28;20090;-68
2023/12/11 04:50:54;;;;;;;55.38;7.78;;;;;;;;;;5092855;28;20035;-68
2023/12/11 04:53:21;;;;;;;57.55;7.07;;;;;;;;;;5092781;28;20398;-68
2023/12/11 04:55:47;;;;;;;49.40;6.38;;;;;;;;;;5091403;28;20076;-68
2023/12/11 04:58:13;;;;;;;58.92;7.57;;;;;;;;;;5092272;28;20104;-68
2023/12/11 05:00:39;;;;;;;58.15;7.43;;;;;;;;;;5093074;28;20051;-68
2023/12/11 05:03:05;;;;;;;51.40;7.50;;;;;;;;;;5092813;28;20417;-68
2023/12/11 05:05:31;;;;;;;52.40;7.25;;;;;;;;;;5092149;28;20501;-68
2023/12/11 05:07:57;;;;;;;51.90;7.75;;;;;;;;;;5092660;28;20109;-68
2023/12/11 05:10:23;;;;;;;56.30;6.75;;;;;;;;;;5092553;28;20082;-68
2023/12/11 05:12:49;;;;;;;50.00;6.72;;;;;;;;;;5091001;28;20444;-68
2023/12/11 05:15:15;;;;;;;56.88;6.65;;;;;;;;;;5092714;28;20108;-68
2023/12/11 05:17:41;;;;;;;50.85;7.43;;;;;;;;;;5090892;28;20040;-68
2023/12/11 05:20:07;;;;;;;54.80;6.60;;;;;;;;;;5070558;28;20048;-68
2023/12/11 05:22:33;;;;;;;53.88;7.00;;;;;;;;;;5072359;28;20094;-68
2023/12/11 05:24:59;;;;;;;37.13;5.25;;;;;;;;;;5072624;28;20421;-68
2023/12/11 05:27:25;;;;;;;42.10;5.85;;;;;;;;;;5072338;28;20189;-68
2023/12/11 05:29:51;;;;;;;54.00;7.38;;;;;;;;;;5071364;28;20403;-68
2023/12/11 05:32:17;;;;;;;44.58;5.55;;;;;;;;;;5071591;28;20048;-68
2023/12/11 05:34:44;;;;;;;45.22;7.07;;;;;;;;;;5072395;28;20042;-68
2023/12/11 05:37:10;;;;;;;49.83;6.47;;;;;;;;;;5074068;28;20529;-68
2023/12/11 05:39:36;;;;;;;49.45;6.63;;;;;;;;;;5073839;28;20570;-68
2023/12/11 05:42:02;;;;;;;46.20;6.55;;;;;;;;;;5073729;28;20065;-68
2023/12/11 05:44:28;;;;;;;46.25;6.20;;;;;;;;;;5074210;28;20403;-68
2023/12/11 05:46:54;;;;;;;39.97;5.93;;;;;;;;;;5072557;28;20048;-68
2023/12/11 05:49:20;;;;;;;49.33;6.57;;;;;;;;;;5071513;28;20131;-68
2023/12/11 05:51:46;;;;;;;45.25;5.80;;;;;;;;;;5071902;28;20080;-68
2023/12/11 05:54:12;;;;;;;34.83;6.05;;;;;;;;;;5072128;28;20068;-68
2023/12/11 05:56:38;;;;;;;37.47;6.13;;;;;;;;;;5071995;28;20065;-68
2023/12/11 05:59:04;;;;;;;35.47;4.80;;;;;;;;;;5073529;28;20067;-68
2023/12/11 06:01:30;;;;;;;40.17;5.70;;;;;;;;;;5073602;28;20044;-68
2023/12/11 06:03:56;;;;;;;47.40;5.60;;;;;;;;;;5072036;28;20487;-68
2023/12/11 06:06:23;;;;;;;37.10;5.68;;;;;;;;;;5071201;28;20071;-68
2023/12/11 06:08:50;;;;;;;38.38;5.63;;;;;;;;;;5073511;28;20377;-68
2023/12/11 06:11:16;;;;;;;34.25;5.15;;;;;;;;;;5072393;28;20479;-68
2023/12/11 06:13:42;;;;;;;35.15;5.28;;;;;;;;;;5073845;28;20432;-68
2023/12/11 06:16:09;;;;;;;35.70;5.68;;;;;;;;;;5072505;28;20486;-68
2023/12/11 06:18:35;;;;;;;45.33;5.60;;;;;;;;;;5080642;28;20051;-68
2023/12/11 06:21:01;;;;;;;36.13;5.13;;;;;;;;;;5092141;28;20402;-68
2023/12/11 06:23:27;;;;;;;41.17;5.90;;;;;;;;;;5093534;28;20048;-68
2023/12/11 06:25:54;;;;;;;40.85;5.28;;;;;;;;;;5083695;28;20431;-68
2023/12/11 06:28:20;;;;;;;39.83;6.25;;;;;;;;;;5070705;28;20090;-68
2023/12/11 06:30:46;;;;;;;43.42;7.35;;;;;;;;;;5071786;28;20490;-68
2023/12/11 06:33:12;;;;;;;38.08;6.15;;;;;;;;;;5071117;28;20517;-68
2023/12/11 06:35:38;;;;;;;43.10;6.40;;;;;;;;;;5072629;28;20047;-68
2023/12/11 06:38:04;;;;;;;42.60;5.90;;;;;;;;;;5071707;28;20550;-68
2023/12/11 06:40:31;;;;;;;42.00;6.57;;;;;;;;;;5053254;28;20445;-68
2023/12/11 06:42:57;;;;;;;41.30;5.43;;;;;;;;;;5070022;28;20413;-68
2023/12/11 06:45:23;;;;;;;41.83;6.32;;;;;;;;;;5071201;28;20124;-68
2023/12/11 06:47:49;;;;;;;42.25;5.40;;;;;;;;;;5069632;28;20072;-68
2023/12/11 06:50:19;;;;;;;49.17;5.85;;;;;;;;;;5069432;28;20075;-68
2023/12/11 06:52:45;;;;;;;44.10;5.68;;;;;;;;;;5070776;28;20043;-68
2023/12/11 06:55:11;;;;;;;39.35;5.65;;;;;;;;;;5070686;28;20377;-68
2023/12/11 06:57:37;;;;;;;38.53;5.28;;;;;;;;;;5070441;28;20083;-68
2023/12/11 07:00:05;;;;;;;36.50;5.05;;;;;;;;;;5052742;28;20123;-68
2023/12/11 07:02:31;;;;;;;40.50;5.72;;;;;;;;;;5068940;28;20437;-68
2023/12/11 07:04:59;;;;;;;42.92;6.38;;;;;;;;;;5069177;28;20119;-68
2023/12/11 07:07:25;;;;;;;43.75;6.28;;;;;;;;;;5070465;28;20075;-68
2023/12/11 07:09:51;;;;;;;40.95;5.95;;;;;;;;;;5070084;28;20379;-68
2023/12/11 07:12:17;;;;;;;40.40;6.43;;;;;;;;;;5053927;28;20464;-68
2023/12/11 07:14:44;;;;;;;40.85;5.70;;;;;;;;;;5071820;28;20044;-68
2023/12/11 07:17:10;;;;;;;36.85;5.40;;;;;;;;;;5069454;28;20113;-68
2023/12/11 07:19:36;;;;;;;44.47;5.63;;;;;;;;;;5086749;28;20048;-68
2023/12/11 07:22:02;;;;;;;32.53;5.03;;;;;;;;;;5090187;28;20047;-68
2023/12/11 07:24:28;;;;;;;36.22;5.70;;;;;;;;;;5073098;28;20096;-67
2023/12/11 07:26:55;;;;;;;35.85;6.75;;;;;;;;;;5073691;28;20502;-67
2023/12/11 07:29:21;;;;;;;36.92;5.75;;;;;;;;;;5053046;28;20048;-68
2023/12/11 07:31:47;;;;;;;46.60;5.90;;;;;;;;;;5071407;28;20174;-68
2023/12/11 07:34:13;;;;;;;42.20;6.15;;;;;;;;;;5076774;28;20497;-68
2023/12/11 07:36:39;;;;;;;32.15;5.38;;;;;;;;;;5090623;28;20043;-68
2023/12/11 07:39:06;;;;;;;29.52;4.80;;;;;;;;;;5091041;28;20119;-68
2023/12/11 07:41:32;;;;;;;42.38;5.90;;;;;;;;;;5086353;28;20036;-66
2023/12/11 07:43:58;;;;;;;37.97;4.90;;;;;;;;;;5079075;28;20666;-68
2023/12/11 07:46:24;;;;;;;41.63;5.03;;;;;;;;;;5081983;28;20415;-68
2023/12/11 07:48:50;;;;;;;27.88;4.90;;;;;;;;;;5076621;28;20486;-68
2023/12/11 07:51:18;;;;;;;32.15;5.25;;;;;;;;;;5089340;28;20044;-68
2023/12/11 07:53:45;;;;;;;29.65;4.85;;;;;;;;;;5089133;28;20028;-68
2023/12/11 07:56:18;;;;;;;23.17;4.75;;;;;;;;;;5077035;28;20072;-69
2023/12/11 07:58:44;;;;;;;26.58;4.47;;;;;;;;;;5080177;28;20135;-69
2023/12/11 08:01:10;;;;;;;23.75;4.10;;;;;;;;;;5080701;28;20086;-69
2023/12/11 08:03:36;;;;;;;23.42;4.35;;;;;;;;;;5090170;28;20540;-68
2023/12/11 08:06:03;;;;;;;28.85;4.57;;;;;;;;;;5089293;28;20043;-69
2023/12/11 08:08:29;;;;;;;23.50;4.38;;;;;;;;;;5088669;28;20040;-69
2023/12/11 08:10:55;;;;;;;19.90;4.43;;;;;;;;;;5079435;28;20205;-68
2023/12/11 08:13:21;;;;;;;20.10;4.10;;;;;;;;;;5081292;28;20141;-70
2023/12/11 08:15:47;;;;;;;25.80;4.43;;;;;;;;;;5092647;28;20123;-70
2023/12/11 08:18:14;;;;;;;20.00;3.45;;;;;;;;;;5092327;28;20482;-70
2023/12/11 08:20:40;;;;;;;17.85;3.88;;;;;;;;;;5075565;28;20047;-70
2023/12/11 08:23:06;;;;;;;16.90;4.07;;;;;;;;;;5092833;28;20036;-70
2023/12/11 08:25:32;;;;;;;14.13;4.25;;;;;;;;;;5074670;28;20493;-71
2023/12/11 08:27:58;;;;;;;18.15;3.97;;;;;;;;;;5092441;28;20486;-71
2023/12/11 08:30:24;;;;;;;22.60;4.45;;;;;;;;;;5092305;28;20480;-70
2023/12/11 08:32:51;;;;;;;15.75;3.33;;;;;;;;;;5090286;28;20494;-71
2023/12/11 08:35:17;;;;;;;23.33;4.65;;;;;;;;;;5078110;28;20044;-67
2023/12/11 08:37:43;;;;;;;17.75;3.20;;;;;;;;;;5090373;28;20047;-67
2023/12/11 08:40:09;;;;;;;21.85;3.88;;;;;;;;;;5084706;28;20036;-67
2023/12/11 08:42:36;;;;;;;20.60;3.42;;;;;;;;;;5076950;28;20043;-67
2023/12/11 08:45:02;;;;;;;15.23;3.03;;;;;;;;;;5078837;28;20123;-68
2023/12/11 08:47:29;;;;;;;22.83;3.60;;;;;;;;;;5090376;28;20052;-68
2023/12/11 08:49:55;;;;;;;17.23;3.08;;;;;;;;;;5079536;28;20040;-68
2023/12/11 08:52:21;;;;;;;10.93;2.88;;;;;;;;;;5074630;28;20471;-67
2023/12/11 08:54:47;;;;;;;15.82;3.30;;;;;;;;;;5087767;28;20401;-68
2023/12/11 08:57:13;;;;;;;17.02;3.20;;;;;;;;;;5085597;28;20051;-68
2023/12/11 08:59:39;;;;;;;8.52;3.05;;;;;;;;;;5092376;28;20051;-69
2023/12/11 09:02:05;;;;;;;15.50;3.05;;;;;;;;;;5086640;28;20535;-70
2023/12/11 09:04:31;;;;;;;16.10;2.90;;;;;;;;;;5082253;28;20483;-68
2023/12/11 09:06:57;;;;;;;15.57;3.63;;;;;;;;;;5089371;28;20335;-66
2023/12/11 09:09:24;;;;;;;12.25;3.67;;;;;;;;;;5089849;28;20121;-67
2023/12/11 09:11:51;;;;;;;20.60;3.53;;;;;;;;;;5091891;28;20565;-68
2023/12/11 09:14:17;;;;;;;20.83;4.20;;;;;;;;;;5087804;28;20044;-68
2023/12/11 09:16:43;;;;;;;19.67;4.38;;;;;;;;;;5091223;28;20454;-69
2023/12/11 09:19:09;;;;;;;18.02;3.90;;;;;;;;;;5083753;28;20063;-69
2023/12/11 09:21:36;;;;;;;15.45;3.58;;;;;;;;;;5088819;28;20036;-67
2023/12/11 09:24:03;;;;;;;15.48;3.70;;;;;;;;;;5089293;28;20081;-66
2023/12/11 09:26:29;;;;;;;24.48;4.20;;;;;;;;;;5078683;28;20515;-67
2023/12/11 09:28:55;;;;;;;35.17;4.13;;;;;;;;;;5086508;28;20124;-68
2023/12/11 09:31:24;;;;;;;19.25;3.40;;;;;;;;;;5082945;28;20463;-68
2023/12/11 09:33:50;;;;;;;18.58;3.63;;;;;;;;;;5084159;28;20055;-69
2023/12/11 09:36:16;;;;;;;22.08;3.17;;;;;;;;;;5073682;28;20489;-68
2023/12/11 09:38:42;;;;;;;21.95;3.08;;;;;;;;;;5087025;28;20672;-68
2023/12/11 09:41:08;;;;;;;15.73;2.95;;;;;;;;;;5081898;28;20051;-67
2023/12/11 09:43:36;;;;;;;14.52;3.17;;;;;;;;;;5089895;28;20143;-67
2023/12/11 09:46:02;;;;;;;13.15;2.67;;;;;;;;;;5075966;28;20044;-67
2023/12/11 09:48:29;;;;;;;17.88;2.70;;;;;;;;;;5081838;28;20490;-66
2023/12/11 09:50:55;;;;;;;15.05;2.90;;;;;;;;;;5089210;28;20101;-65
2023/12/11 09:53:21;;;;;;;15.05;2.70;;;;;;;;;;5090250;28;20047;-67
2023/12/11 09:55:48;;;;;;;15.40;3.28;;;;;;;;;;5091692;28;20415;-66
2023/12/11 09:58:15;;;;;;;15.77;3.10;;;;;;;;;;5081812;28;20088;-66
2023/12/11 10:00:42;;;;;;;15.00;2.70;;;;;;;;;;5080957;28;20074;-66
2023/12/11 10:03:08;;;;;;;20.05;3.15;;;;;;;;;;5076829;28;20040;-66
2023/12/11 10:05:35;;;;;;;18.35;3.90;;;;;;;;;;5068017;28;20039;-65
2023/12/11 10:08:02;;;;;;;17.35;3.22;;;;;;;;;;5088648;28;20036;-66
2023/12/11 10:10:33;;;;;;;25.98;2.88;;;;;;;;;;5082001;28;20040;-67
2023/12/11 10:13:03;;;;;;;21.30;3.53;;;;;;;;;;5088616;28;20043;-67
2023/12/11 10:15:31;;;;;;;18.50;2.92;;;;;;;;;;5089957;28;20100;-67
2023/12/11 10:18:06;;;;;;;17.35;3.15;;;;;;;;;;5088500;28;20051;-69
2023/12/11 10:20:33;;;;;;;23.75;3.00;;;;;;;;;;5088964;28;20115;-68
2023/12/11 10:23:10;;;;;;;19.42;2.88;;;;;;;;;;5086267;28;20040;-67
2023/12/11 10:25:36;;;;;;;13.35;2.65;;;;;;;;;;5078503;28;20047;-67
2023/12/11 10:28:09;;;;;;;10.55;2.17;;;;;;;;;;5079144;28;20040;-67
2023/12/11 10:31:04;;;;;;;17.13;2.25;;;;;;;;;;5080910;28;20513;-70
2023/12/11 10:33:31;;;;;;;20.13;3.63;;;;;;;;;;5076498;28;20079;-69
2023/12/11 10:36:12;;;;;;;19.02;3.92;;;;;;;;;;5082163;28;20079;-69
2023/12/11 10:38:41;;;;;;;21.08;3.10;;;;;;;;;;5080709;28;20040;-68
2023/12/11 10:41:07;;;;;;;22.05;3.70;;;;;;;;;;5082063;28;20052;-70
2023/12/11 10:43:40;;;;;;;26.13;4.53;;;;;;;;;;5080876;28;20048;-68
2023/12/11 10:46:07;;;;;;;18.63;2.45;;;;;;;;;;5077424;28;20656;-69
2023/12/11 10:48:36;;;;;;;20.88;3.50;;;;;;;;;;5078944;28;20043;-69
2023/12/11 10:51:06;;;;;;;18.92;2.95;;;;;;;;;;5059296;28;20036;-67
2023/12/11 10:53:33;;;;;;;27.48;4.07;;;;;;;;;;5081127;28;20028;-68
2023/12/11 10:56:01;;;;;;;20.98;3.28;;;;;;;;;;5080891;28;20044;-67
2023/12/11 10:58:27;;;;;;;19.23;2.88;;;;;;;;;;5080227;28;20060;-67
2023/12/11 11:00:55;;;;;;;19.30;2.75;;;;;;;;;;5089584;28;20055;-69
2023/12/11 11:03:22;;;;;;;18.70;3.10;;;;;;;;;;5082088;28;20411;-69
2023/12/11 11:05:48;;;;;;;16.10;2.83;;;;;;;;;;5081385;28;20463;-69
2023/12/11 11:08:14;;;;;;;23.38;3.13;;;;;;;;;;5082793;28;20462;-68
2023/12/11 11:10:42;;;;;;;25.70;3.20;;;;;;;;;;5081399;28;20080;-68
2023/12/11 11:13:15;;;;;;;25.77;3.35;;;;;;;;;;5086088;28;20474;-68
2023/12/11 11:15:41;;;;;;;;;;;;;;;;;;5085187;28;20657;-68
2023/12/11 11:18:10;;;;;;;18.73;2.80;;;;;;;;;;5084971;28;19924;-69
2023/12/11 11:20:40;;;;;;;25.70;3.75;;;;;;;;;;5081322;28;20097;-69
2023/12/11 11:23:18;;;;;;;20.88;3.42;;;;;;;;;;5082142;28;20371;-70
2023/12/11 11:25:52;;;;;;;26.48;4.38;;;;;;;;;;5076901;28;20047;-70
2023/12/11 11:28:50;;;;;;;20.13;3.38;;;;;;;;;;5084126;28;20179;-71
2023/12/11 11:31:17;;;;;;;17.20;2.38;;;;;;;;;;5080045;28;20047;-67
2023/12/11 11:33:46;;;;;;;21.80;2.50;;;;;;;;;;5088197;28;20105;-68
2023/12/11 11:36:16;;;;;;;18.95;3.15;;;;;;;;;;5087485;28;20040;-66
2023/12/11 11:38:52;;;;;;;16.63;3.03;;;;;;;;;;5089619;28;20383;-67
2023/12/11 11:41:25;;;;;;;23.10;3.05;;;;;;;;;;5082527;28;20040;-67
2023/12/11 11:43:58;;;;;;;16.10;3.00;;;;;;;;;;5070891;28;20550;-67
2023/12/11 11:46:24;;;;;;;20.38;3.70;;;;;;;;;;5088755;28;20051;-67
2023/12/11 11:48:50;;;;;;;22.65;3.50;;;;;;;;;;5093127;28;20711;-67
2023/12/11 11:51:17;;;;;;;27.80;4.85;;;;;;;;;;5077934;28;20036;-67
2023/12/11 11:53:44;;;;;;;23.40;4.30;;;;;;;;;;5089648;28;20075;-67
2023/12/11 11:56:11;;;;;;;32.90;5.20;;;;;;;;;;5083458;28;20040;-69
2023/12/11 11:58:37;;;;;;;29.15;4.80;;;;;;;;;;5088949;28;20066;-69
2023/12/11 12:01:04;;;;;;;26.25;4.15;;;;;;;;;;5081830;28;20051;-68
2023/12/11 12:03:43;;;;;;;26.23;4.78;;;;;;;;;;5087543;28;20069;-67
2023/12/11 12:06:10;;;;;;;25.17;3.67;;;;;;;;;;5078912;28;20045;-67
2023/12/11 12:08:36;;;;;;;22.50;4.07;;;;;;;;;;5081138;28;20043;-68
2023/12/11 12:11:05;;;;;;;23.85;3.67;;;;;;;;;;5087517;28;20032;-68
2023/12/11 12:13:36;;;;;;;17.40;3.30;;;;;;;;;;5092301;28;20043;-67
2023/12/11 12:16:02;;;;;;;16.60;2.90;;;;;;;;;;5092164;28;20432;-67
2023/12/11 12:18:29;;;;;;;17.65;3.42;;;;;;;;;;5070155;28;20377;-66
2023/12/11 12:21:04;;;;;;;12.93;2.75;;;;;;;;;;5080971;28;20036;-68
2023/12/11 12:23:31;;;;;;;23.08;3.03;;;;;;;;;;5080509;28;20058;-67
2023/12/11 12:25:59;;;;;;;15.32;2.75;;;;;;;;;;5082388;28;20081;-66
2023/12/11 12:28:25;;;;;;;19.30;2.40;;;;;;;;;;5077513;28;20044;-67
2023/12/11 12:30:52;;;;;;;13.02;2.38;;;;;;;;;;5082052;28;20032;-67
2023/12/11 12:33:18;;;;;;;10.85;2.60;;;;;;;;;;5092439;28;20036;-67
2023/12/11 12:35:45;;;;;;;11.95;2.15;;;;;;;;;;5080762;28;20674;-69
2023/12/11 12:38:11;;;;;;;10.95;1.58;;;;;;;;;;5089071;28;20082;-68
2023/12/11 12:40:38;;;;;;;14.18;1.88;;;;;;;;;;5091876;28;20109;-66
2023/12/11 12:43:13;;;;;;;11.13;1.35;;;;;;;;;;5080552;28;20696;-66
2023/12/11 12:45:40;;;;;;;10.63;1.90;;;;;;;;;;5087015;28;20055;-67
2023/12/11 12:48:08;;;;;;;6.47;1.70;;;;;;;;;;5089256;28;20379;-69
2023/12/11 12:50:35;;;;;;;9.15;1.52;;;;;;;;;;5081649;28;20052;-67
2023/12/11 12:53:08;;;;;;;12.07;1.20;;;;;;;;;;5087957;28;20036;-67
2023/12/11 12:55:36;;;;;;;11.77;1.63;;;;;;;;;;5093023;28;20119;-67
2023/12/11 12:58:02;;;;;;;8.07;1.40;;;;;;;;;;5083264;28;20455;-68
2023/12/11 13:00:28;;;;;;;7.70;1.52;;;;;;;;;;5091177;28;20494;-68
2023/12/11 13:02:54;;;;;;;9.15;1.58;;;;;;;;;;5091888;28;20070;-67
2023/12/11 13:05:20;;;;;;;10.20;1.83;;;;;;;;;;5089674;28;20055;-68
2023/12/11 13:07:57;;;;;;;9.90;1.40;;;;;;;;;;5083313;28;20297;-68
2023/12/11 13:10:24;;;;;;;10.95;1.63;;;;;;;;;;5086545;28;20044;-67
2023/12/11 13:12:50;;;;;;;9.63;1.30;;;;;;;;;;5079522;28;20123;-67
2023/12/11 13:15:16;;;;;;;4.78;1.20;;;;;;;;;;5088813;28;20629;-67
2023/12/11 13:17:50;;;;;;;5.72;1.23;;;;;;;;;;5086273;28;20386;-66
2023/12/11 13:20:16;;;;;;;11.23;1.33;;;;;;;;;;5074504;28;20028;-66
2023/12/11 13:22:42;;;;;;;13.20;1.45;;;;;;;;;;5087501;28;20028;-68
2023/12/11 13:25:08;;;;;;;11.38;1.60;;;;;;;;;;5073810;28;20032;-68
2023/12/11 13:27:34;;;;;;;6.35;1.00;;;;;;;;;;5090103;28;20040;-68
2023/12/11 13:30:02;;;;;;;8.32;1.23;;;;;;;;;;5075117;28;20040;-70
2023/12/11 13:32:28;;;;;;;5.55;1.10;;;;;;;;;;5082211;28;20490;-70
2023/12/11 13:34:54;;;;;;;10.63;1.27;;;;;;;;;;5091116;28;20105;-67
2023/12/11 13:37:20;;;;;;;9.20;1.20;;;;;;;;;;5092320;28;20647;-68
2023/12/11 13:39:47;;;;;;;6.45;1.15;;;;;;;;;;5091091;28;20166;-68
2023/12/11 13:42:13;;;;;;;6.70;1.10;;;;;;;;;;5090906;28;20105;-68
2023/12/11 13:44:39;;;;;;;8.40;1.13;;;;;;;;;;5091804;28;20048;-68
2023/12/11 13:47:05;;;;;;;6.32;1.02;;;;;;;;;;5090780;28;20040;-67
2023/12/11 13:49:32;;;;;;;8.25;1.30;;;;;;;;;;5090801;28;20100;-68
2023/12/11 13:51:58;;;;;;;8.98;1.20;;;;;;;;;;5090607;28;20127;-68
2023/12/11 13:54:24;;;;;;;8.10;1.20;;;;;;;;;;5091880;28;20050;-68
2023/12/11 13:56:50;;;;;;;6.63;1.10;;;;;;;;;;5087820;28;20105;-70
2023/12/11 13:59:16;;;;;;;4.70;1.02;;;;;;;;;;5091994;28;20036;-69
2023/12/11 14:01:42;;;;;;;6.38;0.90;;;;;;;;;;5090909;28;20398;-70
2023/12/11 14:04:09;;;;;;;5.35;0.93;;;;;;;;;;5090678;28;20040;-68
2023/12/11 14:06:35;;;;;;;9.45;1.10;;;;;;;;;;5090697;28;20047;-69
2023/12/11 14:09:03;;;;;;;7.30;1.00;;;;;;;;;;5091245;28;20039;-69
2023/12/11 14:11:29;;;;;;;10.38;1.10;;;;;;;;;;5089439;28;20111;-70
2023/12/11 14:13:55;;;;;;;9.20;1.08;;;;;;;;;;5085195;28;20565;-69
2023/12/11 14:16:27;;;;;;;10.27;1.70;;;;;;;;;;5090235;28;20055;-68
2023/12/11 14:18:53;;;;;;;6.43;1.10;;;;;;;;;;5073084;28;20040;-69
2023/12/11 14:21:20;;;;;;;9.80;0.90;;;;;;;;;;5091802;28;20050;-68
2023/12/11 14:23:48;;;;;;;7.15;1.13;;;;;;;;;;5089672;28;20043;-71
2023/12/11 14:26:17;;;;;;;9.55;1.20;;;;;;;;;;5072987;28;20052;-70
2023/12/11 14:28:43;;;;;;;9.32;1.45;;;;;;;;;;5091475;28;20459;-69